sensor_id;sensor_type;location;lat;lon;timestamp;temperature;humidity
9941;DHT22;5009;50.656;7.188;2023-09-19T04:02:15;15.70;99.90
9941;DHT22;5009;50.656;7.188;2023-09-19T04:04:51;15.60;99.90
9941;DHT22;5009;50.656;7.188;2023-09-19T04:07:17;15.60;99.90
9941;DHT22;5009;50.656;7.188;2023-09-19T04:09:44;15.60;99.90
9941;DHT22;5009;50.656;7.188;2023-09-19T04:12:11;15.50;99.90
9941;DHT22;5009;50.656;7.188;2023-09-19T04:14:37;15.50;99.90
9941;DHT22;5009;50.656;7.188;2023-09-19T04:17:02;15.50;99.90
9941;DHT22;5009;50.656;7.188;2023-09-19T04:19:28;15.50;99.90
9941;DHT22;5009;50.656;7.188;2023-09-19T04:21:54;15.40;99.90
9941;DHT22;5009;50.656;7.188;2023-09-19T04:24:19;15.30;99.90
9941;DHT22;5009;50.656;7.188;2023-09-19T04:26:45;15.30;99.90
9941;DHT22;5009;50.656;7.188;2023-09-19T04:29:11;15.30;99.90
9941;DHT22;5009;50.656;7.188;2023-09-19T04:31:39;15.20;99.90
9941;DHT22;5009;50.656;7.188;2023-09-19T04:34:06;15.20;99.90
9941;DHT22;5009;50.656;7.188;2023-09-19T04:36:31;15.20;99.90
9941;DHT22;5009;50.656;7.188;2023-09-19T04:38:57;15.20;99.90
9941;DHT22;5009;50.656;7.188;2023-09-19T04:41:23;15.10;99.90
9941;DHT22;5009;50.656;7.188;2023-09-19T04:43:49;15.10;99.90
9941;DHT22;5009;50.656;7.188;2023-09-19T04:46:16;15.10;99.90
9941;DHT22;5009;50.656;7.188;2023-09-19T04:48:43;15.10;99.90
9941;DHT22;5009;50.656;7.188;2023-09-19T04:51:09;15.10;99.90
9941;DHT22;5009;50.656;7.188;2023-09-19T04:53:35;15.10;99.90
9941;DHT22;5009;50.656;7.188;2023-09-19T04:56:01;15.00;99.90
9941;DHT22;5009;50.656;7.188;2023-09-19T04:58:29;15.00;99.90
9941;DHT22;5009;50.656;7.188;2023-09-19T05:00:54;15.00;99.90
9941;DHT22;5009;50.656;7.188;2023-09-19T05:03:20;14.90;99.90
9941;DHT22;5009;50.656;7.188;2023-09-19T05:05:47;14.90;99.90
9941;DHT22;5009;50.656;7.188;2023-09-19T05:08:13;14.90;99.90
9941;DHT22;5009;50.656;7.188;2023-09-19T05:10:39;14.90;99.90
9941;DHT22;5009;50.656;7.188;2023-09-19T05:13:05;14.90;99.90
9941;DHT22;5009;50.656;7.188;2023-09-19T05:15:32;14.90;99.90
9941;DHT22;5009;50.656;7.188;2023-09-19T05:17:58;14.80;99.90
9941;DHT22;5009;50.656;7.188;2023-09-19T05:20:24;14.80;99.90
9941;DHT22;5009;50.656;7.188;2023-09-19T05:22:58;14.80;99.90
9941;DHT22;5009;50.656;7.188;2023-09-19T05:25:27;14.80;99.90
9941;DHT22;5009;50.656;7.188;2023-09-19T05:27:58;14.80;99.90
9941;DHT22;5009;50.656;7.188;2023-09-19T05:30:25;14.80;99.90
9941;DHT22;5009;50.656;7.188;2023-09-19T05:32:53;14.80;99.90
9941;DHT22;5009;50.656;7.188;2023-09-19T05:35:19;14.80;99.90
9941;DHT22;5009;50.656;7.188;2023-09-19T05:37:47;14.80;99.90
9941;DHT22;5009;50.656;7.188;2023-09-19T05:40:14;14.80;99.90
9941;DHT22;5009;50.656;7.188;2023-09-19T05:42:41;14.80;99.90
9941;DHT22;5009;50.656;7.188;2023-09-19T05:45:09;14.80;99.90
9941;DHT22;5009;50.656;7.188;2023-09-19T05:47:39;14.80;99.90
9941;DHT22;5009;50.656;7.188;2023-09-19T05:50:06;14.90;99.90
9941;DHT22;5009;50.656;7.188;2023-09-19T05:52:34;14.90;99.90
9941;DHT22;5009;50.656;7.188;2023-09-19T05:55:00;14.90;99.90
9941;DHT22;5009;50.656;7.188;2023-09-19T05:57:26;14.90;99.90
9941;DHT22;5009;50.656;7.188;2023-09-19T05:59:51;15.00;99.90
9941;DHT22;5009;50.656;7.188;2023-09-19T06:02:17;15.00;99.90
9941;DHT22;5009;50.656;7.188;2023-09-19T06:04:44;15.10;99.90
9941;DHT22;5009;50.656;7.188;2023-09-19T06:07:09;15.10;99.90
9941;DHT22;5009;50.656;7.188;2023-09-19T06:09:35;15.20;99.90
9941;DHT22;5009;50.656;7.188;2023-09-19T06:12:01;15.30;99.90
9941;DHT22;5009;50.656;7.188;2023-09-19T06:14:29;15.40;99.90
9941;DHT22;5009;50.656;7.188;2023-09-19T06:16:54;15.40;99.90
9941;DHT22;5009;50.656;7.188;2023-09-19T06:19:20;15.50;99.90
9941;DHT22;5009;50.656;7.188;2023-09-19T06:21:48;15.50;99.90
9941;DHT22;5009;50.656;7.188;2023-09-19T06:24:14;15.60;99.90
9941;DHT22;5009;50.656;7.188;2023-09-19T06:26:40;15.60;99.90
9941;DHT22;5009;50.656;7.188;2023-09-19T06:29:06;15.60;99.90
9941;DHT22;5009;50.656;7.188;2023-09-19T06:31:34;15.70;99.90
9941;DHT22;5009;50.656;7.188;2023-09-19T06:34:00;15.70;99.90
9941;DHT22;5009;50.656;7.188;2023-09-19T06:36:25;15.80;99.90
9941;DHT22;5009;50.656;7.188;2023-09-19T06:38:51;15.80;99.90
9941;DHT22;5009;50.656;7.188;2023-09-19T06:41:17;15.90;99.90
9941;DHT22;5009;50.656;7.188;2023-09-19T06:43:43;15.90;99.90
9941;DHT22;5009;50.656;7.188;2023-09-19T06:46:09;16.00;99.90
9941;DHT22;5009;50.656;7.188;2023-09-19T06:48:35;16.10;99.90
9941;DHT22;5009;50.656;7.188;2023-09-19T06:51:01;16.20;99.90
9941;DHT22;5009;50.656;7.188;2023-09-19T06:53:31;16.20;99.90
9941;DHT22;5009;50.656;7.188;2023-09-19T06:55:57;16.30;99.90
9941;DHT22;5009;50.656;7.188;2023-09-19T06:58:23;16.30;99.90
9941;DHT22;5009;50.656;7.188;2023-09-19T07:00:48;16.50;99.90
9941;DHT22;5009;50.656;7.188;2023-09-19T07:03:15;16.50;99.90
9941;DHT22;5009;50.656;7.188;2023-09-19T07:05:47;16.60;99.90
9941;DHT22;5009;50.656;7.188;2023-09-19T07:08:13;16.70;99.90
9941;DHT22;5009;50.656;7.188;2023-09-19T07:10:40;16.90;99.90
9941;DHT22;5009;50.656;7.188;2023-09-19T07:13:07;17.10;99.90
9941;DHT22;5009;50.656;7.188;2023-09-19T07:15:37;17.20;99.90
9941;DHT22;5009;50.656;7.188;2023-09-19T07:18:11;17.30;99.90
9941;DHT22;5009;50.656;7.188;2023-09-19T07:20:38;17.50;99.90
9941;DHT22;5009;50.656;7.188;2023-09-19T07:23:03;17.60;99.90
9941;DHT22;5009;50.656;7.188;2023-09-19T07:25:30;17.80;99.90
9941;DHT22;5009;50.656;7.188;2023-09-19T07:27:56;17.80;99.90
9941;DHT22;5009;50.656;7.188;2023-09-19T07:30:25;18.10;99.80
9941;DHT22;5009;50.656;7.188;2023-09-19T07:32:52;18.00;98.90
9941;DHT22;5009;50.656;7.188;2023-09-19T07:35:18;18.20;99.00
9941;DHT22;5009;50.656;7.188;2023-09-19T07:37:45;18.40;98.40
9941;DHT22;5009;50.656;7.188;2023-09-19T07:40:18;18.50;98.20
9941;DHT22;5009;50.656;7.188;2023-09-19T07:42:44;18.70;97.60
9941;DHT22;5009;50.656;7.188;2023-09-19T07:45:12;19.00;96.60
9941;DHT22;5009;50.656;7.188;2023-09-19T07:47:46;19.20;96.10
9941;DHT22;5009;50.656;7.188;2023-09-19T07:50:13;19.70;94.90
9941;DHT22;5009;50.656;7.188;2023-09-19T07:52:38;20.30;94.80
9941;DHT22;5009;50.656;7.188;2023-09-19T07:55:06;20.40;93.20
9941;DHT22;5009;50.656;7.188;2023-09-19T07:57:37;20.80;93.30
9941;DHT22;5009;50.656;7.188;2023-09-19T08:00:03;20.80;92.70
9941;DHT22;5009;50.656;7.188;2023-09-19T08:02:36;21.00;92.20
9941;DHT22;5009;50.656;7.188;2023-09-19T08:05:04;21.20;92.10
9941;DHT22;5009;50.656;7.188;2023-09-19T08:07:32;21.50;92.30
9941;DHT22;5009;50.656;7.188;2023-09-19T08:09:58;21.70;91.60
9941;DHT22;5009;50.656;7.188;2023-09-19T08:12:24;21.70;90.90
9941;DHT22;5009;50.656;7.188;2023-09-19T08:14:50;22.10;90.90
9941;DHT22;5009;50.656;7.188;2023-09-19T08:17:16;22.30;90.60
9941;DHT22;5009;50.656;7.188;2023-09-19T08:19:42;22.40;90.20
9941;DHT22;5009;50.656;7.188;2023-09-19T08:22:10;22.40;89.30
9941;DHT22;5009;50.656;7.188;2023-09-19T08:24:36;22.10;87.80
9941;DHT22;5009;50.656;7.188;2023-09-19T08:27:04;21.90;88.70
9941;DHT22;5009;50.656;7.188;2023-09-19T08:29:30;21.90;88.90
9941;DHT22;5009;50.656;7.188;2023-09-19T08:31:59;22.20;89.60
9941;DHT22;5009;50.656;7.188;2023-09-19T08:34:25;22.00;89.10
9941;DHT22;5009;50.656;7.188;2023-09-19T08:36:54;22.10;89.20
9941;DHT22;5009;50.656;7.188;2023-09-19T08:39:24;21.90;88.10
9941;DHT22;5009;50.656;7.188;2023-09-19T08:41:49;21.70;87.90
9941;DHT22;5009;50.656;7.188;2023-09-19T08:44:15;21.70;88.30
9941;DHT22;5009;50.656;7.188;2023-09-19T08:46:42;21.90;89.60
9941;DHT22;5009;50.656;7.188;2023-09-19T08:49:23;21.90;88.80
9941;DHT22;5009;50.656;7.188;2023-09-19T08:51:58;22.00;89.00
9941;DHT22;5009;50.656;7.188;2023-09-19T08:54:29;22.10;88.70
9941;DHT22;5009;50.656;7.188;2023-09-19T08:56:59;22.10;88.30
9941;DHT22;5009;50.656;7.188;2023-09-19T08:59:28;22.10;88.90
9941;DHT22;5009;50.656;7.188;2023-09-19T09:01:55;22.30;89.50
9941;DHT22;5009;50.656;7.188;2023-09-19T09:04:22;22.50;88.30
9941;DHT22;5009;50.656;7.188;2023-09-19T09:06:49;22.60;88.50
9941;DHT22;5009;50.656;7.188;2023-09-19T09:09:18;22.60;86.10
9941;DHT22;5009;50.656;7.188;2023-09-19T09:11:45;22.50;86.90
9941;DHT22;5009;50.656;7.188;2023-09-19T09:14:13;22.50;87.30
9941;DHT22;5009;50.656;7.188;2023-09-19T09:16:39;22.40;87.00
9941;DHT22;5009;50.656;7.188;2023-09-19T09:19:05;22.50;86.80
9941;DHT22;5009;50.656;7.188;2023-09-19T09:21:31;22.20;86.80
9941;DHT22;5009;50.656;7.188;2023-09-19T09:24:30;22.10;85.90
9941;DHT22;5009;50.656;7.188;2023-09-19T09:26:57;22.10;86.70
9941;DHT22;5009;50.656;7.188;2023-09-19T09:29:48;22.10;87.70
9941;DHT22;5009;50.656;7.188;2023-09-19T09:32:35;22.20;86.90
9941;DHT22;5009;50.656;7.188;2023-09-19T09:35:07;22.00;85.40
9941;DHT22;5009;50.656;7.188;2023-09-19T09:37:36;22.10;86.10
9941;DHT22;5009;50.656;7.188;2023-09-19T09:40:04;22.20;86.10
9941;DHT22;5009;50.656;7.188;2023-09-19T09:42:42;22.30;86.20
9941;DHT22;5009;50.656;7.188;2023-09-19T09:45:22;22.40;84.60
9941;DHT22;5009;50.656;7.188;2023-09-19T09:48:03;22.20;83.40
9941;DHT22;5009;50.656;7.188;2023-09-19T09:50:36;22.00;82.70
9941;DHT22;5009;50.656;7.188;2023-09-19T09:53:28;22.00;83.10
9941;DHT22;5009;50.656;7.188;2023-09-19T09:56:07;22.00;83.70
9941;DHT22;5009;50.656;7.188;2023-09-19T09:58:33;22.00;82.90
9941;DHT22;5009;50.656;7.188;2023-09-19T10:01:00;22.00;83.00
9941;DHT22;5009;50.656;7.188;2023-09-19T10:03:38;21.90;83.90
9941;DHT22;5009;50.656;7.188;2023-09-19T10:06:14;21.70;82.10
9941;DHT22;5009;50.656;7.188;2023-09-19T10:09:07;21.80;83.00
9941;DHT22;5009;50.656;7.188;2023-09-19T10:11:46;21.90;83.40
9941;DHT22;5009;50.656;7.188;2023-09-19T10:14:16;21.90;82.90
9941;DHT22;5009;50.656;7.188;2023-09-19T10:17:05;22.00;83.50
9941;DHT22;5009;50.656;7.188;2023-09-19T10:19:42;22.00;83.50
9941;DHT22;5009;50.656;7.188;2023-09-19T10:22:13;22.00;82.10
9941;DHT22;5009;50.656;7.188;2023-09-19T10:24:47;21.80;82.20
9941;DHT22;5009;50.656;7.188;2023-09-19T10:27:12;21.80;82.30
9941;DHT22;5009;50.656;7.188;2023-09-19T10:29:40;21.80;82.80
9941;DHT22;5009;50.656;7.188;2023-09-19T10:32:07;21.80;82.30
9941;DHT22;5009;50.656;7.188;2023-09-19T10:34:35;21.50;80.30
9941;DHT22;5009;50.656;7.188;2023-09-19T10:37:02;21.70;82.00
9941;DHT22;5009;50.656;7.188;2023-09-19T10:39:32;21.80;82.60
9941;DHT22;5009;50.656;7.188;2023-09-19T10:42:02;21.80;82.10
9941;DHT22;5009;50.656;7.188;2023-09-19T10:44:32;21.80;82.00
9941;DHT22;5009;50.656;7.188;2023-09-19T10:46:58;21.80;81.40
9941;DHT22;5009;50.656;7.188;2023-09-19T10:49:24;21.70;82.40
9941;DHT22;5009;50.656;7.188;2023-09-19T10:51:55;21.80;82.70
9941;DHT22;5009;50.656;7.188;2023-09-19T10:54:27;21.80;81.20
9941;DHT22;5009;50.656;7.188;2023-09-19T10:56:54;21.80;80.60
9941;DHT22;5009;50.656;7.188;2023-09-19T10:59:22;21.90;82.80
9941;DHT22;5009;50.656;7.188;2023-09-19T11:01:52;21.90;81.60
9941;DHT22;5009;50.656;7.188;2023-09-19T11:04:32;21.80;81.90
9941;DHT22;5009;50.656;7.188;2023-09-19T11:09:49;21.80;81.40
9941;DHT22;5009;50.656;7.188;2023-09-19T11:14:58;21.70;80.90
9941;DHT22;5009;50.656;7.188;2023-09-19T11:30:35;22.00;80.40
9941;DHT22;5009;50.656;7.188;2023-09-19T11:36:08;21.80;78.70
9941;DHT22;5009;50.656;7.188;2023-09-19T11:39:01;21.90;78.90
9941;DHT22;5009;50.656;7.188;2023-09-19T11:41:36;21.90;79.40
9941;DHT22;5009;50.656;7.188;2023-09-19T11:46:33;21.80;78.40
9941;DHT22;5009;50.656;7.188;2023-09-19T11:49:09;21.80;78.40
9941;DHT22;5009;50.656;7.188;2023-09-19T11:51:43;21.80;77.10
9941;DHT22;5009;50.656;7.188;2023-09-19T11:54:12;21.70;76.90
9941;DHT22;5009;50.656;7.188;2023-09-19T11:56:50;21.70;77.30
9941;DHT22;5009;50.656;7.188;2023-09-19T11:59:23;21.70;76.80
9941;DHT22;5009;50.656;7.188;2023-09-19T12:01:54;21.70;77.30
9941;DHT22;5009;50.656;7.188;2023-09-19T12:04:34;21.60;77.00
9941;DHT22;5009;50.656;7.188;2023-09-19T12:09:39;21.60;77.00
9941;DHT22;5009;50.656;7.188;2023-09-19T12:12:06;21.60;77.00
9941;DHT22;5009;50.656;7.188;2023-09-19T12:14:32;21.60;77.80
9941;DHT22;5009;50.656;7.188;2023-09-19T12:16:58;21.70;78.70
9941;DHT22;5009;50.656;7.188;2023-09-19T12:19:26;21.70;78.70
9941;DHT22;5009;50.656;7.188;2023-09-19T12:21:59;21.70;78.60
9941;DHT22;5009;50.656;7.188;2023-09-19T12:24:29;21.70;78.70
9941;DHT22;5009;50.656;7.188;2023-09-19T12:27:00;21.80;78.70
9941;DHT22;5009;50.656;7.188;2023-09-19T12:29:27;21.70;78.00
9941;DHT22;5009;50.656;7.188;2023-09-19T12:31:54;21.60;77.60
9941;DHT22;5009;50.656;7.188;2023-09-19T12:34:27;21.50;76.60
9941;DHT22;5009;50.656;7.188;2023-09-19T12:37:13;21.50;77.20
9941;DHT22;5009;50.656;7.188;2023-09-19T12:39:47;21.40;78.00
9941;DHT22;5009;50.656;7.188;2023-09-19T12:42:22;21.40;78.40
9941;DHT22;5009;50.656;7.188;2023-09-19T12:44:49;21.40;77.90
9941;DHT22;5009;50.656;7.188;2023-09-19T12:47:21;21.50;77.40
9941;DHT22;5009;50.656;7.188;2023-09-19T12:50:11;21.40;77.40
9941;DHT22;5009;50.656;7.188;2023-09-19T12:52:44;21.40;77.40
9941;DHT22;5009;50.656;7.188;2023-09-19T12:55:30;21.40;77.00
9941;DHT22;5009;50.656;7.188;2023-09-19T12:58:13;21.40;76.90
9941;DHT22;5009;50.656;7.188;2023-09-19T13:00:42;21.30;76.70
9941;DHT22;5009;50.656;7.188;2023-09-19T13:03:17;21.30;77.00
9941;DHT22;5009;50.656;7.188;2023-09-19T13:05:57;21.40;78.10
9941;DHT22;5009;50.656;7.188;2023-09-19T13:08:30;21.40;77.60
9941;DHT22;5009;50.656;7.188;2023-09-19T13:16:04;21.40;77.60
9941;DHT22;5009;50.656;7.188;2023-09-19T13:18:42;21.40;77.70
9941;DHT22;5009;50.656;7.188;2023-09-19T13:21:11;21.40;77.60
9941;DHT22;5009;50.656;7.188;2023-09-19T13:23:42;21.40;78.10
9941;DHT22;5009;50.656;7.188;2023-09-19T13:26:09;21.40;78.40
9941;DHT22;5009;50.656;7.188;2023-09-19T13:28:40;21.40;77.80
9941;DHT22;5009;50.656;7.188;2023-09-19T13:31:06;21.40;78.00
9941;DHT22;5009;50.656;7.188;2023-09-19T13:33:33;21.40;77.70
9941;DHT22;5009;50.656;7.188;2023-09-19T13:35:59;21.30;77.10
9941;DHT22;5009;50.656;7.188;2023-09-19T13:38:25;21.30;77.20
9941;DHT22;5009;50.656;7.188;2023-09-19T13:40:50;21.30;76.90
9941;DHT22;5009;50.656;7.188;2023-09-19T13:43:17;21.30;77.20
9941;DHT22;5009;50.656;7.188;2023-09-19T13:45:43;21.30;77.00
9941;DHT22;5009;50.656;7.188;2023-09-19T13:48:09;21.20;77.70
9941;DHT22;5009;50.656;7.188;2023-09-19T13:50:37;21.20;77.50
9941;DHT22;5009;50.656;7.188;2023-09-19T13:53:07;21.10;77.20
9941;DHT22;5009;50.656;7.188;2023-09-19T13:55:33;21.10;77.80
9941;DHT22;5009;50.656;7.188;2023-09-19T13:57:59;21.20;77.90
9941;DHT22;5009;50.656;7.188;2023-09-19T14:00:25;21.20;77.60
9941;DHT22;5009;50.656;7.188;2023-09-19T14:02:51;21.20;77.80
9941;DHT22;5009;50.656;7.188;2023-09-19T14:05:17;21.30;78.30
9941;DHT22;5009;50.656;7.188;2023-09-19T14:07:44;21.30;78.20
9941;DHT22;5009;50.656;7.188;2023-09-19T14:10:11;21.30;78.40
9941;DHT22;5009;50.656;7.188;2023-09-19T14:12:40;21.30;77.00
9941;DHT22;5009;50.656;7.188;2023-09-19T14:15:10;21.30;77.30
9941;DHT22;5009;50.656;7.188;2023-09-19T14:17:37;21.30;77.50
9941;DHT22;5009;50.656;7.188;2023-09-19T14:20:03;21.30;77.80
9941;DHT22;5009;50.656;7.188;2023-09-19T14:22:31;21.20;77.50
9941;DHT22;5009;50.656;7.188;2023-09-19T14:24:56;21.20;77.50
9941;DHT22;5009;50.656;7.188;2023-09-19T14:27:22;21.20;77.40
9941;DHT22;5009;50.656;7.188;2023-09-19T14:29:48;21.20;77.20
9941;DHT22;5009;50.656;7.188;2023-09-19T14:32:13;21.20;77.10
9941;DHT22;5009;50.656;7.188;2023-09-19T14:34:39;21.00;76.80
9941;DHT22;5009;50.656;7.188;2023-09-19T14:37:08;21.10;76.80
9941;DHT22;5009;50.656;7.188;2023-09-19T14:39:34;21.00;77.10
9941;DHT22;5009;50.656;7.188;2023-09-19T14:41:59;21.10;78.80
9941;DHT22;5009;50.656;7.188;2023-09-19T14:44:25;21.10;77.80
9941;DHT22;5009;50.656;7.188;2023-09-19T14:46:51;21.00;76.50
9941;DHT22;5009;50.656;7.188;2023-09-19T14:49:16;21.00;76.30
9941;DHT22;5009;50.656;7.188;2023-09-19T14:51:42;20.90;76.70
9941;DHT22;5009;50.656;7.188;2023-09-19T14:54:09;20.90;75.70
9941;DHT22;5009;50.656;7.188;2023-09-19T14:56:35;21.00;76.40
9941;DHT22;5009;50.656;7.188;2023-09-19T14:59:01;21.00;76.10
9941;DHT22;5009;50.656;7.188;2023-09-19T15:01:28;21.00;76.20
9941;DHT22;5009;50.656;7.188;2023-09-19T15:03:54;21.00;76.40
9941;DHT22;5009;50.656;7.188;2023-09-19T15:06:20;21.00;76.10
9941;DHT22;5009;50.656;7.188;2023-09-19T15:08:47;21.00;76.60
9941;DHT22;5009;50.656;7.188;2023-09-19T15:11:17;21.00;76.10
9941;DHT22;5009;50.656;7.188;2023-09-19T15:13:44;21.10;75.70
9941;DHT22;5009;50.656;7.188;2023-09-19T15:16:10;21.00;76.60
9941;DHT22;5009;50.656;7.188;2023-09-19T15:18:41;21.00;75.70
9941;DHT22;5009;50.656;7.188;2023-09-19T15:21:09;21.00;75.80
9941;DHT22;5009;50.656;7.188;2023-09-19T15:23:37;21.00;76.30
9941;DHT22;5009;50.656;7.188;2023-09-19T15:26:14;21.10;76.40
9941;DHT22;5009;50.656;7.188;2023-09-19T15:28:45;21.10;76.00
9941;DHT22;5009;50.656;7.188;2023-09-19T15:31:12;21.00;76.10
9941;DHT22;5009;50.656;7.188;2023-09-19T15:33:38;21.00;76.00
9941;DHT22;5009;50.656;7.188;2023-09-19T15:39:03;21.10;76.10
9941;DHT22;5009;50.656;7.188;2023-09-19T15:43:58;21.10;77.10
9941;DHT22;5009;50.656;7.188;2023-09-19T15:46:27;21.10;77.60
9941;DHT22;5009;50.656;7.188;2023-09-19T15:48:55;21.10;77.10
9941;DHT22;5009;50.656;7.188;2023-09-19T15:51:20;21.00;76.90
9941;DHT22;5009;50.656;7.188;2023-09-19T15:53:48;21.10;77.40
9941;DHT22;5009;50.656;7.188;2023-09-19T15:56:15;21.00;77.90
9941;DHT22;5009;50.656;7.188;2023-09-19T15:58:44;21.10;78.30
9941;DHT22;5009;50.656;7.188;2023-09-19T16:01:10;21.20;78.50
9941;DHT22;5009;50.656;7.188;2023-09-19T16:03:43;21.20;78.50
9941;DHT22;5009;50.656;7.188;2023-09-19T16:06:13;21.10;77.60
9941;DHT22;5009;50.656;7.188;2023-09-19T16:08:46;21.20;77.80
9941;DHT22;5009;50.656;7.188;2023-09-19T16:11:13;21.20;78.30
9941;DHT22;5009;50.656;7.188;2023-09-19T16:13:40;21.20;78.60
9941;DHT22;5009;50.656;7.188;2023-09-19T16:16:09;21.20;78.80
9941;DHT22;5009;50.656;7.188;2023-09-19T16:18:38;21.20;78.80
9941;DHT22;5009;50.656;7.188;2023-09-19T16:21:06;21.10;78.50
9941;DHT22;5009;50.656;7.188;2023-09-19T16:23:33;21.10;78.90
9941;DHT22;5009;50.656;7.188;2023-09-19T16:26:05;21.10;79.50
9941;DHT22;5009;50.656;7.188;2023-09-19T16:28:32;21.00;79.60
9941;DHT22;5009;50.656;7.188;2023-09-19T16:31:00;21.00;79.60
9941;DHT22;5009;50.656;7.188;2023-09-19T16:33:25;21.00;80.10
9941;DHT22;5009;50.656;7.188;2023-09-19T16:35:52;20.90;79.60
9941;DHT22;5009;50.656;7.188;2023-09-19T16:38:18;20.90;80.00
9941;DHT22;5009;50.656;7.188;2023-09-19T16:40:52;20.90;79.80
9941;DHT22;5009;50.656;7.188;2023-09-19T16:43:18;21.00;80.40
9941;DHT22;5009;50.656;7.188;2023-09-19T16:45:55;21.00;80.80
9941;DHT22;5009;50.656;7.188;2023-09-19T16:48:25;20.90;80.70
9941;DHT22;5009;50.656;7.188;2023-09-19T16:50:51;20.90;80.60
9941;DHT22;5009;50.656;7.188;2023-09-19T16:53:18;20.80;80.70
9941;DHT22;5009;50.656;7.188;2023-09-19T16:55:47;20.90;81.10
9941;DHT22;5009;50.656;7.188;2023-09-19T16:58:14;20.80;81.10
9941;DHT22;5009;50.656;7.188;2023-09-19T17:00:40;20.80;81.10
9941;DHT22;5009;50.656;7.188;2023-09-19T17:03:06;20.80;81.10
9941;DHT22;5009;50.656;7.188;2023-09-19T17:05:32;20.60;81.20
9941;DHT22;5009;50.656;7.188;2023-09-19T17:07:58;20.60;81.60
9941;DHT22;5009;50.656;7.188;2023-09-19T17:10:33;20.50;81.50
9941;DHT22;5009;50.656;7.188;2023-09-19T17:13:00;20.50;82.10
9941;DHT22;5009;50.656;7.188;2023-09-19T17:15:25;20.40;82.70
9941;DHT22;5009;50.656;7.188;2023-09-19T17:17:52;20.40;82.70
9941;DHT22;5009;50.656;7.188;2023-09-19T17:20:18;20.30;83.00
9941;DHT22;5009;50.656;7.188;2023-09-19T17:22:44;20.20;83.20
9941;DHT22;5009;50.656;7.188;2023-09-19T17:25:10;20.10;83.30
9941;DHT22;5009;50.656;7.188;2023-09-19T17:27:38;20.10;83.50
9941;DHT22;5009;50.656;7.188;2023-09-19T17:30:08;20.10;84.00
9941;DHT22;5009;50.656;7.188;2023-09-19T17:32:35;20.00;84.40
9941;DHT22;5009;50.656;7.188;2023-09-19T17:35:02;20.00;84.20
9941;DHT22;5009;50.656;7.188;2023-09-19T17:37:28;19.90;84.20
9941;DHT22;5009;50.656;7.188;2023-09-19T17:39:54;19.90;84.80
9941;DHT22;5009;50.656;7.188;2023-09-19T17:42:20;19.90;85.00
9941;DHT22;5009;50.656;7.188;2023-09-19T17:44:45;19.80;84.90
9941;DHT22;5009;50.656;7.188;2023-09-19T17:47:11;19.80;85.00
9941;DHT22;5009;50.656;7.188;2023-09-19T17:49:37;19.80;85.10
9941;DHT22;5009;50.656;7.188;2023-09-19T17:52:02;19.70;85.30
9941;DHT22;5009;50.656;7.188;2023-09-19T17:54:30;19.70;86.10
9941;DHT22;5009;50.656;7.188;2023-09-19T17:56:56;19.60;86.10
9941;DHT22;5009;50.656;7.188;2023-09-19T17:59:22;19.50;86.60
9941;DHT22;5009;50.656;7.188;2023-09-19T18:01:48;19.50;86.60
9941;DHT22;5009;50.656;7.188;2023-09-19T18:04:15;19.50;87.60
9941;DHT22;5009;50.656;7.188;2023-09-19T18:06:41;19.40;87.70
9941;DHT22;5009;50.656;7.188;2023-09-19T18:09:07;19.40;87.90
9941;DHT22;5009;50.656;7.188;2023-09-19T18:11:33;19.40;88.30
9941;DHT22;5009;50.656;7.188;2023-09-19T18:13:59;19.40;88.50
9941;DHT22;5009;50.656;7.188;2023-09-19T18:16:25;19.40;88.80
9941;DHT22;5009;50.656;7.188;2023-09-19T18:18:52;19.40;89.30
9941;DHT22;5009;50.656;7.188;2023-09-19T18:21:19;19.40;89.30
9941;DHT22;5009;50.656;7.188;2023-09-19T18:23:55;19.30;89.80
9941;DHT22;5009;50.656;7.188;2023-09-19T18:26:22;19.30;90.10
9941;DHT22;5009;50.656;7.188;2023-09-19T18:28:48;19.20;90.10
9941;DHT22;5009;50.656;7.188;2023-09-19T18:31:14;19.30;90.40
9941;DHT22;5009;50.656;7.188;2023-09-19T18:33:39;19.20;90.60
9941;DHT22;5009;50.656;7.188;2023-09-19T18:36:07;19.20;90.60
9941;DHT22;5009;50.656;7.188;2023-09-19T18:38:42;19.20;90.80
9941;DHT22;5009;50.656;7.188;2023-09-19T18:41:11;19.20;91.00
9941;DHT22;5009;50.656;7.188;2023-09-19T18:43:37;19.10;91.10
9941;DHT22;5009;50.656;7.188;2023-09-19T18:46:04;19.10;91.60
9941;DHT22;5009;50.656;7.188;2023-09-19T18:48:31;19.00;91.60
9941;DHT22;5009;50.656;7.188;2023-09-19T18:50:57;19.00;91.80
9941;DHT22;5009;50.656;7.188;2023-09-19T18:53:23;19.00;92.20
9941;DHT22;5009;50.656;7.188;2023-09-19T18:56:05;18.90;92.50
9941;DHT22;5009;50.656;7.188;2023-09-19T18:58:31;18.90;92.90
9941;DHT22;5009;50.656;7.188;2023-09-19T19:01:10;18.90;92.60
9941;DHT22;5009;50.656;7.188;2023-09-19T19:03:36;18.80;92.40
9941;DHT22;5009;50.656;7.188;2023-09-19T19:06:08;18.70;92.20
9941;DHT22;5009;50.656;7.188;2023-09-19T19:08:35;18.70;92.30
9941;DHT22;5009;50.656;7.188;2023-09-19T19:11:05;18.70;92.90
9941;DHT22;5009;50.656;7.188;2023-09-19T19:13:31;18.70;93.50
9941;DHT22;5009;50.656;7.188;2023-09-19T19:15:57;18.80;94.30
9941;DHT22;5009;50.656;7.188;2023-09-19T19:18:24;18.70;94.10
9941;DHT22;5009;50.656;7.188;2023-09-19T19:21:05;18.70;94.00
9941;DHT22;5009;50.656;7.188;2023-09-19T19:23:34;18.70;93.50
9941;DHT22;5009;50.656;7.188;2023-09-19T19:26:01;18.70;93.50
9941;DHT22;5009;50.656;7.188;2023-09-19T19:28:30;18.70;93.50
9941;DHT22;5009;50.656;7.188;2023-09-19T19:30:56;18.70;93.60
9941;DHT22;5009;50.656;7.188;2023-09-19T19:33:22;18.70;93.80
9941;DHT22;5009;50.656;7.188;2023-09-19T19:35:49;18.70;93.80
9941;DHT22;5009;50.656;7.188;2023-09-19T19:38:15;18.80;93.90
9941;DHT22;5009;50.656;7.188;2023-09-19T19:40:41;18.70;93.80
9941;DHT22;5009;50.656;7.188;2023-09-19T19:43:09;18.70;93.80
9941;DHT22;5009;50.656;7.188;2023-09-19T19:45:34;18.80;93.90
9941;DHT22;5009;50.656;7.188;2023-09-19T19:48:00;18.80;93.80
9941;DHT22;5009;50.656;7.188;2023-09-19T19:50:30;18.80;93.80
9941;DHT22;5009;50.656;7.188;2023-09-19T19:52:56;18.80;94.00
9941;DHT22;5009;50.656;7.188;2023-09-19T19:55:25;18.80;94.40
9941;DHT22;5009;50.656;7.188;2023-09-19T19:57:56;18.90;94.70
9941;DHT22;5009;50.656;7.188;2023-09-19T20:00:21;18.90;94.80
9941;DHT22;5009;50.656;7.188;2023-09-19T20:02:51;18.80;94.80
9941;DHT22;5009;50.656;7.188;2023-09-19T20:05:17;18.90;94.80
9941;DHT22;5009;50.656;7.188;2023-09-19T20:07:44;18.80;94.60
9941;DHT22;5009;50.656;7.188;2023-09-19T20:10:11;18.80;94.70
9941;DHT22;5009;50.656;7.188;2023-09-19T20:12:41;18.80;94.80
9941;DHT22;5009;50.656;7.188;2023-09-19T20:15:07;18.80;94.60
9941;DHT22;5009;50.656;7.188;2023-09-19T20:17:36;18.80;94.70
9941;DHT22;5009;50.656;7.188;2023-09-19T20:20:01;18.80;94.90
9941;DHT22;5009;50.656;7.188;2023-09-19T20:22:28;18.80;94.80
9941;DHT22;5009;50.656;7.188;2023-09-19T20:24:54;18.90;94.90
9941;DHT22;5009;50.656;7.188;2023-09-19T20:27:19;18.90;94.90
9941;DHT22;5009;50.656;7.188;2023-09-19T20:29:45;18.90;95.00
9941;DHT22;5009;50.656;7.188;2023-09-19T20:32:11;18.90;95.00
9941;DHT22;5009;50.656;7.188;2023-09-19T20:34:38;18.90;94.90
9941;DHT22;5009;50.656;7.188;2023-09-19T20:37:04;18.90;95.00
9941;DHT22;5009;50.656;7.188;2023-09-19T20:39:30;18.90;95.10
9941;DHT22;5009;50.656;7.188;2023-09-19T20:41:56;18.90;95.30
9941;DHT22;5009;50.656;7.188;2023-09-19T20:44:21;18.90;95.50
9941;DHT22;5009;50.656;7.188;2023-09-19T20:46:47;18.80;95.60
9941;DHT22;5009;50.656;7.188;2023-09-19T20:49:16;18.80;95.50